createdAt,value
2019-05-09T00:00:14.251Z,9.25
2019-05-09T00:02:44.191Z,9.30
2019-05-09T00:05:13.776Z,9.33
2019-05-09T00:10:14.227Z,9.15
2019-05-09T00:12:43.720Z,9.33
2019-05-09T00:15:13.622Z,9.63
2019-05-09T00:17:43.939Z,10.55
2019-05-09T00:20:14.347Z,9.88
2019-05-09T00:22:43.553Z,16.07
2019-05-09T00:25:13.102Z,12.10
2019-05-09T00:30:10.197Z,9.98
2019-05-09T00:32:40.281Z,9.93
2019-05-09T00:35:14.140Z,9.50
2019-05-09T00:37:53.889Z,9.08
2019-05-09T00:40:24.363Z,10.28
2019-05-09T00:42:54.443Z,10.30
2019-05-09T00:45:28.958Z,9.93
2019-05-09T00:47:57.438Z,10.75
2019-05-09T00:50:26.025Z,10.05
2019-05-09T00:52:54.570Z,10.60
2019-05-09T00:55:23.886Z,10.13
2019-05-09T01:00:24.271Z,10.00
2019-05-09T01:02:54.197Z,9.28
2019-05-09T01:05:23.917Z,9.73
2019-05-09T01:07:53.818Z,9.68
2019-05-09T01:10:23.709Z,9.73
2019-05-09T01:12:54.270Z,9.45
2019-05-09T01:15:23.984Z,9.58
2019-05-09T01:17:53.601Z,10.15
2019-05-09T01:22:53.907Z,9.63
2019-05-09T01:25:24.035Z,8.95
2019-05-09T01:27:53.887Z,9.33
2019-05-09T01:30:24.181Z,9.63
2019-05-09T01:32:57.411Z,8.90
2019-05-09T01:35:25.925Z,10.15
2019-05-09T01:37:54.461Z,9.48
2019-05-09T01:40:23.914Z,8.43
2019-05-09T01:45:23.665Z,8.83
2019-05-09T01:47:53.753Z,8.68
2019-05-09T01:50:23.349Z,8.38
2019-05-09T01:52:53.374Z,8.65
2019-05-09T01:55:23.792Z,8.63
2019-05-09T01:57:53.848Z,8.08
2019-05-09T02:00:23.890Z,8.13
2019-05-09T02:02:54.035Z,7.78
2019-05-09T02:05:24.089Z,7.53
2019-05-09T02:07:54.243Z,7.12
2019-05-09T02:10:23.319Z,7.10
2019-05-09T02:12:53.836Z,7.25
2019-05-09T02:15:26.772Z,6.87
2019-05-09T02:18:04.288Z,6.22
2019-05-09T02:20:29.765Z,5.92
2019-05-09T02:22:58.311Z,6.67
2019-05-09T02:25:26.814Z,6.62
2019-05-09T02:27:55.381Z,6.70
2019-05-09T02:30:25.593Z,6.42
2019-05-09T02:32:54.804Z,6.70
2019-05-09T02:35:23.428Z,6.80
2019-05-09T02:37:51.916Z,6.37
2019-05-09T02:40:20.569Z,6.67
2019-05-09T02:42:49.253Z,6.13
2019-05-09T02:45:19.421Z,6.67
2019-05-09T02:47:49.035Z,6.30
2019-05-09T02:50:19.536Z,6.40
2019-05-09T02:52:48.826Z,6.70
2019-05-09T02:55:18.478Z,6.75
2019-05-09T02:57:49.095Z,6.67
2019-05-09T03:00:20.572Z,8.25
2019-05-09T03:02:50.713Z,7.35
2019-05-09T03:05:19.772Z,6.87
2019-05-09T03:07:51.464Z,7.10
2019-05-09T03:10:21.101Z,7.80
2019-05-09T03:15:19.584Z,7.78
2019-05-09T03:17:49.490Z,7.20
2019-05-09T03:20:20.282Z,7.17
2019-05-09T03:22:48.895Z,7.70
2019-05-09T03:25:19.176Z,7.22
2019-05-09T03:28:05.471Z,7.30
2019-05-09T03:30:39.638Z,7.53
2019-05-09T03:33:10.409Z,8.38
2019-05-09T03:35:39.062Z,7.40
2019-05-09T03:38:08.375Z,8.45
2019-05-09T03:40:38.007Z,7.78
2019-05-09T03:43:08.225Z,8.23
2019-05-09T03:45:54.784Z,7.90
2019-05-09T03:48:30.921Z,8.10
2019-05-09T03:50:59.366Z,7.97
2019-05-09T03:53:27.906Z,8.20
2019-05-09T03:55:58.152Z,8.30
2019-05-09T03:58:28.129Z,8.20
2019-05-09T04:00:57.981Z,7.87
2019-05-09T04:03:27.682Z,8.70
2019-05-09T04:06:02.143Z,8.85
2019-05-09T04:08:28.235Z,8.95
2019-05-09T04:10:58.698Z,8.93
2019-05-09T04:13:28.775Z,8.55
2019-05-09T04:15:58.226Z,8.95
2019-05-09T04:20:57.351Z,9.55
2019-05-09T04:26:00.327Z,9.05
2019-05-09T04:28:28.805Z,9.88
2019-05-09T04:30:58.104Z,10.48
2019-05-09T04:33:27.988Z,10.30
2019-05-09T04:35:57.913Z,10.45
2019-05-09T04:38:27.918Z,11.00
2019-05-09T04:40:58.329Z,10.28
2019-05-09T04:43:34.851Z,11.03
2019-05-09T04:46:02.073Z,11.33
2019-05-09T04:48:31.100Z,11.05
2019-05-09T04:51:01.822Z,10.80
2019-05-09T04:53:30.760Z,10.95
2019-05-09T04:56:01.077Z,11.35
2019-05-09T04:58:29.537Z,11.57
2019-05-09T05:01:19.568Z,12.28
2019-05-09T05:03:47.994Z,12.65
2019-05-09T05:06:20.321Z,13.15
2019-05-09T05:08:47.893Z,13.18
2019-05-09T05:13:48.011Z,13.32
2019-05-09T05:16:18.301Z,13.43
2019-05-09T05:18:47.784Z,13.50
2019-05-09T05:24:23.201Z,14.53
2019-05-09T05:26:51.747Z,13.90
2019-05-09T05:29:20.194Z,13.72
2019-05-09T05:31:49.013Z,14.78
2019-05-09T05:34:24.941Z,15.43
2019-05-09T05:36:54.617Z,15.43
2019-05-09T05:41:51.212Z,14.75
2019-05-09T05:44:19.885Z,18.07
2019-05-09T05:47:02.616Z,15.60
2019-05-09T05:49:31.384Z,15.03
2019-05-09T05:52:01.666Z,16.27
2019-05-09T05:54:30.437Z,14.60
2019-05-09T05:56:59.607Z,16.45
2019-05-09T05:59:28.796Z,17.10
2019-05-09T06:01:58.435Z,17.57
2019-05-09T06:06:58.892Z,15.15
2019-05-09T06:09:28.073Z,15.45
2019-05-09T06:11:57.716Z,16.17
2019-05-09T06:16:54.466Z,15.78
2019-05-09T06:19:23.453Z,17.00
2019-05-09T06:21:52.486Z,18.80
2019-05-09T06:24:21.232Z,20.37
2019-05-09T06:26:49.919Z,20.52
2019-05-09T06:29:18.365Z,19.32
2019-05-09T06:31:48.500Z,17.75
2019-05-09T06:34:18.755Z,17.35
2019-05-09T06:36:48.972Z,17.52
2019-05-09T06:39:18.697Z,16.93
2019-05-09T06:41:48.335Z,17.32
2019-05-09T06:44:20.722Z,19.10
2019-05-09T06:46:50.866Z,18.23
2019-05-09T06:49:28.302Z,17.95
2019-05-09T06:51:54.129Z,17.37
2019-05-09T06:54:22.601Z,16.70
2019-05-09T06:56:51.042Z,16.97
2019-05-09T06:59:19.497Z,16.85
2019-05-09T07:01:57.487Z,15.60
2019-05-09T07:04:33.185Z,14.85
2019-05-09T07:07:09.141Z,14.68
2019-05-09T07:09:39.221Z,14.58
2019-05-09T07:12:08.054Z,14.68
2019-05-09T07:14:40.931Z,14.75
2019-05-09T07:17:08.198Z,15.10
2019-05-09T07:19:38.300Z,13.68
2019-05-09T07:22:09.218Z,15.15
2019-05-09T07:25:05.995Z,14.68
2019-05-09T07:27:29.293Z,15.10
2019-05-09T07:29:59.385Z,15.38
2019-05-09T07:32:29.475Z,16.73
2019-05-09T07:34:59.573Z,18.82
2019-05-09T07:37:28.034Z,20.80
2019-05-09T07:39:57.752Z,19.57
2019-05-09T07:42:28.471Z,17.82
2019-05-09T07:44:59.090Z,20.30
2019-05-09T07:47:28.255Z,20.40
2019-05-09T07:49:58.566Z,20.10
2019-05-09T07:52:28.424Z,18.00
2019-05-09T07:54:58.026Z,17.95
2019-05-09T07:57:28.509Z,17.67
2019-05-09T07:59:58.490Z,17.17
2019-05-09T08:02:28.248Z,18.80
2019-05-09T08:04:57.964Z,18.40
2019-05-09T08:09:57.940Z,18.65
2019-05-09T08:12:28.400Z,17.23
2019-05-09T08:15:10.365Z,18.80
2019-05-09T08:17:28.588Z,19.07
2019-05-09T08:19:58.519Z,18.20
2019-05-09T08:22:31.861Z,18.90
2019-05-09T08:24:57.715Z,17.77
2019-05-09T08:27:30.059Z,19.45
2019-05-09T08:29:58.310Z,21.00
2019-05-09T08:32:37.777Z,22.58
2019-05-09T08:35:08.242Z,20.02
2019-05-09T08:37:39.107Z,19.07
2019-05-09T08:40:08.051Z,21.10
2019-05-09T08:42:37.843Z,17.77
2019-05-09T08:45:17.342Z,14.83
2019-05-09T08:47:38.033Z,16.87
2019-05-09T08:52:39.982Z,15.53
2019-05-09T08:55:08.604Z,15.40
2019-05-09T08:57:37.612Z,14.47
2019-05-09T09:00:08.422Z,13.30
2019-05-09T09:02:37.661Z,15.13
2019-05-09T09:05:08.682Z,12.68
2019-05-09T09:07:38.028Z,14.87
2019-05-09T09:10:08.403Z,15.88
2019-05-09T09:12:38.354Z,15.25
2019-05-09T09:15:07.955Z,15.23
2019-05-09T09:17:38.527Z,13.65
2019-05-09T09:20:07.862Z,14.50
2019-05-09T09:25:07.623Z,12.60
2019-05-09T09:27:38.050Z,15.45
2019-05-09T09:30:17.742Z,12.88
2019-05-09T09:32:38.779Z,12.95
2019-05-09T09:35:08.107Z,13.90
2019-05-09T09:37:48.169Z,13.15
2019-05-09T09:40:08.778Z,12.75
2019-05-09T09:42:39.665Z,12.58
2019-05-09T09:45:08.042Z,11.93
2019-05-09T09:47:39.340Z,14.20
2019-05-09T09:50:08.737Z,14.05
2019-05-09T09:52:38.483Z,13.10
2019-05-09T10:00:08.952Z,12.63
2019-05-09T10:02:38.199Z,12.70
2019-05-09T10:05:07.866Z,14.87
2019-05-09T10:07:38.430Z,14.60
2019-05-09T10:10:07.951Z,14.13
2019-05-09T10:12:43.587Z,15.48
2019-05-09T10:15:11.782Z,15.93
2019-05-09T10:17:48.057Z,15.30
2019-05-09T10:20:24.530Z,14.75
2019-05-09T10:22:59.898Z,14.95
2019-05-09T10:25:23.414Z,14.28
2019-05-09T10:27:51.869Z,13.10
2019-05-09T10:30:23.468Z,15.88
2019-05-09T10:32:54.764Z,15.68
2019-05-09T10:35:23.656Z,13.98
2019-05-09T10:37:52.220Z,14.98
2019-05-09T10:40:24.014Z,13.55
2019-05-09T10:43:02.710Z,16.00
2019-05-09T10:45:49.050Z,16.43
2019-05-09T10:48:23.796Z,15.50
2019-05-09T10:50:53.867Z,17.60
2019-05-09T10:53:18.233Z,18.12
2019-05-09T10:55:48.090Z,18.32
2019-05-09T10:58:19.651Z,17.00
2019-05-09T11:00:48.353Z,17.40
2019-05-09T11:03:18.023Z,15.68
2019-05-09T11:05:46.751Z,15.35
2019-05-09T11:08:15.344Z,14.93
2019-05-09T11:10:44.266Z,15.65
2019-05-09T11:13:12.715Z,18.07
2019-05-09T11:15:41.335Z,15.78
2019-05-09T11:18:09.842Z,18.60
2019-05-09T11:20:38.382Z,19.52
2019-05-09T11:23:08.133Z,15.70
2019-05-09T11:25:38.082Z,17.42
2019-05-09T11:28:12.642Z,16.17
2019-05-09T11:30:38.622Z,17.98
2019-05-09T11:33:07.941Z,16.65
2019-05-09T11:35:39.561Z,17.98
2019-05-09T11:38:08.527Z,19.32
2019-05-09T11:40:37.815Z,17.52
2019-05-09T11:43:06.509Z,20.00
2019-05-09T11:45:35.028Z,16.40
2019-05-09T11:48:03.550Z,17.60
2019-05-09T11:50:32.004Z,16.97
2019-05-09T11:53:00.675Z,17.40
2019-05-09T11:55:35.760Z,15.37
2019-05-09T11:57:59.356Z,14.98
2019-05-09T12:00:29.482Z,19.27
2019-05-09T12:02:58.366Z,16.27
2019-05-09T12:05:28.751Z,16.10
2019-05-09T12:07:58.109Z,16.80
2019-05-09T12:12:57.590Z,18.23
2019-05-09T12:15:28.753Z,19.25
2019-05-09T12:17:59.170Z,17.48
2019-05-09T12:20:27.734Z,19.07
2019-05-09T12:22:58.445Z,18.40
2019-05-09T12:25:28.284Z,19.85
2019-05-09T12:27:58.394Z,18.02
2019-05-09T12:30:28.428Z,15.03
2019-05-09T12:32:58.884Z,16.35
2019-05-09T12:35:27.339Z,17.00
2019-05-09T12:37:55.846Z,16.52
2019-05-09T12:40:24.380Z,15.13
2019-05-09T12:42:53.701Z,15.60
2019-05-09T12:45:22.378Z,17.17
2019-05-09T12:48:06.259Z,16.00
2019-05-09T12:50:21.416Z,16.23
2019-05-09T12:52:49.884Z,15.95
2019-05-09T12:55:18.564Z,14.43
2019-05-09T12:57:48.949Z,13.40
2019-05-09T13:00:18.670Z,14.80
2019-05-09T13:02:47.408Z,14.60
2019-05-09T13:05:18.198Z,15.90
2019-05-09T13:07:48.048Z,15.75
2019-05-09T13:10:19.505Z,16.75
2019-05-09T13:12:48.731Z,15.78
2019-05-09T13:15:20.719Z,16.07
2019-05-09T13:17:52.388Z,15.53
2019-05-09T13:20:20.874Z,15.68
2019-05-09T13:22:49.495Z,16.60
2019-05-09T13:25:18.760Z,17.27
2019-05-09T13:27:47.965Z,18.70
2019-05-09T13:30:28.465Z,17.20
2019-05-09T13:32:56.923Z,16.12
2019-05-09T13:35:27.653Z,17.73
2019-05-09T13:38:02.544Z,16.05
2019-05-09T13:40:33.285Z,17.35
2019-05-09T13:43:01.267Z,16.42
2019-05-09T13:45:29.734Z,17.20
2019-05-09T13:47:59.715Z,19.92
2019-05-09T13:50:28.371Z,25.75
2019-05-09T13:52:58.291Z,20.07
2019-05-09T13:55:27.622Z,21.17
2019-05-09T13:57:59.226Z,20.40
2019-05-09T14:00:28.464Z,17.90
2019-05-09T14:02:56.631Z,19.23
2019-05-09T14:05:25.096Z,20.12
2019-05-09T14:07:55.600Z,22.85
2019-05-09T14:10:23.905Z,28.12
2019-05-09T14:13:05.372Z,25.75
2019-05-09T14:15:22.574Z,26.82
2019-05-09T14:17:53.940Z,26.45
2019-05-09T14:20:21.201Z,25.72
2019-05-09T14:22:49.699Z,24.82
2019-05-09T14:25:19.542Z,26.12
2019-05-09T14:27:51.727Z,28.90
2019-05-09T14:30:19.782Z,25.20
2019-05-09T14:32:49.855Z,30.30
2019-05-09T14:35:18.730Z,31.82
2019-05-09T14:37:48.766Z,32.90
2019-05-09T14:40:17.760Z,30.20
2019-05-09T14:42:46.293Z,34.75
2019-05-09T14:45:14.993Z,33.67
2019-05-09T14:47:43.446Z,33.30
2019-05-09T14:50:12.032Z,31.00
2019-05-09T14:52:40.532Z,34.08
2019-05-09T14:55:09.199Z,35.90
2019-05-09T14:57:38.505Z,37.70
2019-05-09T15:00:08.854Z,35.85
2019-05-09T15:02:39.049Z,35.15
2019-05-09T15:05:09.566Z,37.78
2019-05-09T15:07:39.111Z,35.92
2019-05-09T15:10:08.646Z,34.43
2019-05-09T15:12:38.975Z,37.58
2019-05-09T15:15:11.118Z,37.95
2019-05-09T15:17:39.861Z,34.55
2019-05-09T15:20:09.307Z,29.30
2019-05-09T15:22:38.694Z,28.45
2019-05-09T15:27:38.565Z,26.35
2019-05-09T15:30:07.826Z,24.10
2019-05-09T15:32:37.714Z,24.90
2019-05-09T15:35:08.926Z,25.55
2019-05-09T15:37:38.536Z,23.77
2019-05-09T15:42:38.852Z,19.37
2019-05-09T15:45:08.421Z,19.07
2019-05-09T15:47:37.987Z,16.57
2019-05-09T15:52:38.302Z,15.83
2019-05-09T15:55:09.443Z,16.87
2019-05-09T15:57:37.906Z,16.37
2019-05-09T16:00:08.496Z,15.80
2019-05-09T16:02:39.136Z,13.72
2019-05-09T16:05:10.601Z,14.53
2019-05-09T16:07:37.608Z,13.68
2019-05-09T16:10:28.313Z,11.88
2019-05-09T16:12:57.070Z,12.65
2019-05-09T16:15:28.506Z,12.10
2019-05-09T16:17:55.855Z,12.20
2019-05-09T16:20:36.936Z,12.88
2019-05-09T16:22:57.105Z,14.50
2019-05-09T16:25:24.798Z,13.83
2019-05-09T16:27:53.287Z,15.78
2019-05-09T16:30:21.809Z,14.13
2019-05-09T16:32:50.268Z,14.13
2019-05-09T16:35:18.763Z,14.28
2019-05-09T16:37:58.369Z,13.38
2019-05-09T16:40:17.531Z,15.03
2019-05-09T16:42:47.612Z,14.87
2019-05-09T16:45:18.175Z,16.05
2019-05-09T16:47:48.586Z,15.08
2019-05-09T16:50:18.131Z,15.18
2019-05-09T16:52:48.761Z,16.27
2019-05-09T16:55:18.459Z,17.25
2019-05-09T16:57:47.613Z,17.75
2019-05-09T17:00:22.034Z,17.95
2019-05-09T17:02:50.845Z,18.73
2019-05-09T17:05:19.305Z,20.68
2019-05-09T17:07:52.456Z,21.17
2019-05-09T17:10:21.222Z,22.20
2019-05-09T17:12:49.671Z,19.73
2019-05-09T17:15:20.113Z,21.90
2019-05-09T17:17:48.603Z,23.35
2019-05-09T17:20:24.477Z,20.50
2019-05-09T17:23:15.090Z,20.97
2019-05-09T17:25:43.011Z,22.25
2019-05-09T17:28:11.473Z,22.62
2019-05-09T17:30:45.310Z,20.88
2019-05-09T17:33:13.822Z,22.95
2019-05-09T17:35:42.705Z,21.27
2019-05-09T17:38:11.229Z,19.27
2019-05-09T17:40:39.751Z,20.92
2019-05-09T17:43:08.474Z,19.52
2019-05-09T17:45:41.756Z,23.98
2019-05-09T17:48:08.541Z,22.85
2019-05-09T17:50:38.365Z,20.17
2019-05-09T17:53:08.571Z,21.85
2019-05-09T17:55:38.123Z,22.13
2019-05-09T18:03:22.817Z,24.15
2019-05-09T18:05:51.549Z,26.70
2019-05-09T18:08:19.994Z,26.53
2019-05-09T18:10:51.296Z,25.17
2019-05-09T18:13:23.979Z,25.75
2019-05-09T18:15:52.909Z,26.37
2019-05-09T18:18:21.759Z,28.02
2019-05-09T18:20:50.368Z,28.55
2019-05-09T18:23:19.000Z,27.62
2019-05-09T18:25:49.403Z,28.32
2019-05-09T18:28:17.971Z,25.40
2019-05-09T18:30:47.915Z,27.50
2019-05-09T18:33:24.244Z,29.40
2019-05-09T18:35:52.696Z,29.40
2019-05-09T18:38:28.073Z,30.12
2019-05-09T18:40:57.976Z,32.17
2019-05-09T18:43:27.468Z,31.55
2019-05-09T18:45:57.874Z,33.75
2019-05-09T18:48:27.880Z,33.83
2019-05-09T18:50:56.646Z,34.10
2019-05-09T18:53:25.224Z,34.13
2019-05-09T18:55:53.665Z,34.80
2019-05-09T18:58:22.264Z,29.65
2019-05-09T19:00:51.332Z,32.67
2019-05-09T19:03:21.301Z,31.20
2019-05-09T19:05:52.973Z,31.82
2019-05-09T19:08:24.121Z,33.67
2019-05-09T19:10:53.779Z,34.75
2019-05-09T19:13:22.281Z,36.70
2019-05-09T19:16:10.854Z,40.52
2019-05-09T19:18:44.350Z,42.13
2019-05-09T19:21:15.950Z,42.17
2019-05-09T19:23:44.505Z,41.48
2019-05-09T19:26:30.987Z,38.95
2019-05-09T19:28:59.514Z,40.08
2019-05-09T19:31:29.568Z,44.10
2019-05-09T19:33:58.059Z,45.98
2019-05-09T19:36:26.503Z,49.95
2019-05-09T19:38:54.950Z,51.37
2019-05-09T19:41:23.510Z,55.20
2019-05-09T19:43:53.051Z,51.13
2019-05-09T19:48:50.694Z,50.03
2019-05-09T19:51:19.175Z,50.17
2019-05-09T19:53:47.753Z,45.73
2019-05-09T19:56:16.302Z,45.08
2019-05-09T19:58:44.763Z,44.53
2019-05-09T20:01:13.252Z,46.13
2019-05-09T20:03:41.766Z,43.33
2019-05-09T20:06:10.364Z,43.23
2019-05-09T20:08:38.846Z,46.58
2019-05-09T20:11:25.264Z,44.27
2019-05-09T20:13:58.248Z,45.35
2019-05-09T20:16:29.584Z,47.17
2019-05-09T20:18:58.527Z,44.80
2019-05-09T20:21:27.001Z,47.05
2019-05-09T20:23:55.660Z,47.60
2019-05-09T20:26:24.167Z,46.73
2019-05-09T20:28:52.754Z,45.08
2019-05-09T20:31:21.208Z,41.42
2019-05-09T20:33:49.690Z,44.93
2019-05-09T20:36:18.140Z,44.77
2019-05-09T20:38:46.846Z,47.85
2019-05-09T20:41:15.533Z,47.77
2019-05-09T20:43:47.071Z,48.20
2019-05-09T20:46:15.693Z,47.00
2019-05-09T20:48:44.423Z,49.15
2019-05-09T20:51:13.056Z,50.30
2019-05-09T20:53:41.683Z,44.83
2019-05-09T20:56:10.522Z,48.37
2019-05-09T20:58:39.164Z,47.90
2019-05-09T21:01:07.897Z,42.13
2019-05-09T21:03:36.653Z,42.90
2019-05-09T21:06:05.303Z,43.80
2019-05-09T21:08:34.009Z,45.25
2019-05-09T21:11:02.761Z,44.17
2019-05-09T21:13:47.134Z,42.53
2019-05-09T21:16:02.066Z,43.63
2019-05-09T21:18:33.818Z,42.57
2019-05-09T21:21:02.643Z,40.67
2019-05-09T21:23:31.284Z,40.17
2019-05-09T21:25:59.947Z,42.13
2019-05-09T21:28:28.651Z,40.67
2019-05-09T21:30:57.268Z,37.30
2019-05-09T21:33:25.926Z,39.38
2019-05-09T21:35:54.445Z,38.78
2019-05-09T21:38:23.029Z,36.50
2019-05-09T21:40:51.541Z,38.98
2019-05-09T21:43:27.853Z,39.92
2019-05-09T21:45:56.453Z,40.65
2019-05-09T21:48:24.938Z,39.15
2019-05-09T21:50:53.394Z,39.10
2019-05-09T21:53:40.987Z,40.65
2019-05-09T21:56:05.411Z,40.28
2019-05-09T21:58:33.845Z,41.20
2019-05-09T22:01:02.481Z,44.70
2019-05-09T22:03:30.927Z,42.70
2019-05-09T22:05:59.435Z,45.08
2019-05-09T22:08:27.936Z,49.18
2019-05-09T22:10:56.479Z,47.83
2019-05-09T22:13:24.926Z,49.15
2019-05-09T22:15:54.310Z,49.77
2019-05-09T22:18:22.760Z,51.98
2019-05-09T22:20:51.198Z,54.33
2019-05-09T22:23:19.666Z,54.53
2019-05-09T22:25:48.108Z,53.70
2019-05-09T22:28:16.552Z,53.02
2019-05-09T22:30:45.037Z,54.90
2019-05-09T22:33:13.480Z,51.90
2019-05-09T22:35:41.998Z,52.40
2019-05-09T22:38:10.569Z,54.75
2019-05-09T22:40:39.165Z,54.40
2019-05-09T22:43:07.688Z,52.73
2019-05-09T22:45:36.226Z,55.90
2019-05-09T22:48:04.801Z,57.48
2019-05-09T22:50:33.250Z,55.88
2019-05-09T22:53:21.059Z,55.63
2019-05-09T22:55:49.500Z,53.20
2019-05-09T22:58:17.970Z,54.50
2019-05-09T23:00:46.524Z,55.33
2019-05-09T23:03:14.966Z,53.73
2019-05-09T23:05:43.400Z,54.25
2019-05-09T23:08:11.913Z,55.80
2019-05-09T23:10:40.356Z,53.30
2019-05-09T23:13:08.797Z,52.48
2019-05-09T23:15:37.277Z,51.50
2019-05-09T23:18:05.957Z,52.03
2019-05-09T23:20:48.055Z,51.93
2019-05-09T23:23:21.250Z,50.70
2019-05-09T23:25:49.862Z,49.38
2019-05-09T23:28:18.344Z,48.17
2019-05-09T23:30:47.660Z,48.28
2019-05-09T23:33:16.107Z,48.87
2019-05-09T23:35:44.586Z,49.00
2019-05-09T23:38:13.021Z,51.63
2019-05-09T23:40:41.465Z,53.13
2019-05-09T23:43:09.938Z,53.60
2019-05-09T23:45:38.378Z,55.50
2019-05-09T23:48:06.882Z,52.62
2019-05-09T23:50:35.364Z,54.60
2019-05-09T23:53:03.888Z,50.70
2019-05-09T23:55:50.524Z,51.92
2019-05-09T23:58:36.894Z,52.80
